Time;durP1;ratioP1;P1;durP2;ratioP2;P2;SDS_P1;SDS_P2;PMS_P1;PMS_P2;Temp;Humidity;BMP_temperature;BMP_pressure;BME280_temperature;BME280_humidity;BME280_pressure;Samples;Min_cycle;Max_cycle;Signal;HPM_P1;HPM_P2
2024/04/10 00:00:52;;;;;;;22.02;11.80;;;;;;;;;;5364836;26;20040;-70
2024/04/10 00:03:18;;;;;;;23.90;11.80;;;;;;;;;;5397793;26;20342;-71
2024/04/10 00:05:43;;;;;;;18.75;10.63;;;;;;;;;;5394808;26;20094;-68
2024/04/10 00:08:09;;;;;;;24.20;11.40;;;;;;;;;;5395491;26;20129;-71
2024/04/10 00:10:34;;;;;;;20.85;10.15;;;;;;;;;;5398345;26;20008;-69
2024/04/10 00:12:59;;;;;;;25.65;11.73;;;;;;;;;;5387331;26;20004;-70
2024/04/10 00:15:25;;;;;;;24.67;12.93;;;;;;;;;;5379234;26;20407;-70
2024/04/10 00:17:50;;;;;;;26.25;12.45;;;;;;;;;;5381912;26;20015;-69
2024/04/10 00:20:16;;;;;;;21.98;13.07;;;;;;;;;;5381916;26;20452;-70
2024/04/10 00:22:41;;;;;;;26.25;13.25;;;;;;;;;;5382238;26;20014;-70
2024/04/10 00:25:07;;;;;;;23.27;12.57;;;;;;;;;;5380849;26;20296;-70
2024/04/10 00:27:32;;;;;;;25.08;13.77;;;;;;;;;;5382368;26;20008;-69
2024/04/10 00:29:57;;;;;;;23.42;13.13;;;;;;;;;;5379368;26;20012;-69
2024/04/10 00:32:25;;;;;;;27.48;14.13;;;;;;;;;;5381913;26;20007;-70
2024/04/10 00:34:50;;;;;;;24.30;12.98;;;;;;;;;;5381744;26;20023;-71
2024/04/10 00:37:16;;;;;;;23.88;12.90;;;;;;;;;;5382666;26;20004;-69
2024/04/10 00:39:41;;;;;;;23.10;12.93;;;;;;;;;;5379928;26;20312;-70
2024/04/10 00:42:07;;;;;;;24.88;13.85;;;;;;;;;;5381806;26;20086;-68
2024/04/10 00:44:32;;;;;;;21.10;13.02;;;;;;;;;;5380162;26;20012;-69
2024/04/10 00:46:57;;;;;;;25.98;13.30;;;;;;;;;;5381338;26;20012;-68
2024/04/10 00:49:23;;;;;;;27.15;14.00;;;;;;;;;;5381352;26;20007;-69
2024/04/10 00:51:49;;;;;;;25.58;13.40;;;;;;;;;;5382676;26;20322;-71
2024/04/10 00:54:15;;;;;;;25.75;13.32;;;;;;;;;;5370875;26;20017;-71
2024/04/10 00:56:40;;;;;;;22.95;13.02;;;;;;;;;;5346666;26;20296;-70
2024/04/10 00:59:07;;;;;;;27.73;13.65;;;;;;;;;;5349020;26;20012;-69
2024/04/10 01:01:33;;;;;;;27.63;14.48;;;;;;;;;;5380803;26;20012;-70
2024/04/10 01:03:58;;;;;;;24.40;13.73;;;;;;;;;;5381421;26;20350;-69
2024/04/10 01:06:30;;;;;;;25.15;14.82;;;;;;;;;;5372980;26;20020;-70
2024/04/10 01:08:55;;;;;;;25.40;13.52;;;;;;;;;;5347811;26;20000;-70
2024/04/10 01:11:21;;;;;;;27.67;14.93;;;;;;;;;;5347251;26;20088;-70
2024/04/10 01:13:46;;;;;;;30.92;14.43;;;;;;;;;;5348454;26;20469;-69
2024/04/10 01:16:12;;;;;;;35.38;14.63;;;;;;;;;;5378289;26;20012;-67
2024/04/10 01:18:37;;;;;;;26.40;14.77;;;;;;;;;;5374910;26;20009;-67
2024/04/10 01:21:03;;;;;;;27.13;14.80;;;;;;;;;;5346655;26;20029;-70
2024/04/10 01:23:28;;;;;;;31.35;15.50;;;;;;;;;;5343298;26;20004;-69
2024/04/10 01:25:54;;;;;;;30.33;15.30;;;;;;;;;;5346029;26;20414;-69
2024/04/10 01:28:19;;;;;;;34.47;16.20;;;;;;;;;;5349648;26;20004;-67
2024/04/10 01:30:44;;;;;;;31.45;16.75;;;;;;;;;;5352851;26;20020;-68
2024/04/10 01:33:10;;;;;;;37.30;17.45;;;;;;;;;;5344120;26;20359;-68
2024/04/10 01:35:35;;;;;;;33.13;15.73;;;;;;;;;;5346554;26;20020;-68
2024/04/10 01:38:01;;;;;;;31.60;16.77;;;;;;;;;;5347482;26;20009;-70
2024/04/10 01:40:27;;;;;;;29.70;15.38;;;;;;;;;;5344616;26;20023;-69
2024/04/10 01:42:52;;;;;;;30.98;15.02;;;;;;;;;;5347919;26;20075;-67
2024/04/10 01:45:18;;;;;;;34.47;16.48;;;;;;;;;;5380784;26;20020;-68
2024/04/10 01:47:43;;;;;;;36.85;16.58;;;;;;;;;;5381925;26;20020;-67
2024/04/10 01:50:09;;;;;;;34.67;16.60;;;;;;;;;;5379474;26;20019;-68
2024/04/10 01:52:35;;;;;;;36.55;17.23;;;;;;;;;;5380619;26;20004;-67
2024/04/10 01:55:03;;;;;;;44.85;17.02;;;;;;;;;;5378982;26;20287;-68
2024/04/10 01:57:32;;;;;;;30.42;16.20;;;;;;;;;;5379058;26;20009;-70
2024/04/10 01:59:57;;;;;;;37.92;17.55;;;;;;;;;;5381473;26;20296;-68
2024/04/10 02:02:23;;;;;;;35.05;18.40;;;;;;;;;;5380420;26;20004;-68
2024/04/10 02:04:48;;;;;;;30.10;15.43;;;;;;;;;;5355290;26;20297;-68
2024/04/10 02:07:13;;;;;;;40.28;17.13;;;;;;;;;;5346606;26;20020;-70
2024/04/10 02:09:39;;;;;;;35.53;17.50;;;;;;;;;;5345380;26;20005;-66
2024/04/10 02:12:04;;;;;;;31.13;17.75;;;;;;;;;;5347719;26;20000;-69
2024/04/10 02:14:30;;;;;;;34.28;16.10;;;;;;;;;;5345462;26;20400;-68
2024/04/10 02:16:57;;;;;;;32.10;17.42;;;;;;;;;;5347237;26;20001;-68
2024/04/10 02:19:22;;;;;;;39.50;19.17;;;;;;;;;;5373486;26;20364;-69
2024/04/10 02:21:48;;;;;;;32.03;19.23;;;;;;;;;;5375985;26;20413;-69
2024/04/10 02:24:13;;;;;;;34.05;18.83;;;;;;;;;;5377863;26;20463;-67
2024/04/10 02:26:39;;;;;;;32.38;20.98;;;;;;;;;;5381363;26;20011;-68
2024/04/10 02:29:04;;;;;;;41.10;22.40;;;;;;;;;;5379933;26;20004;-70
2024/04/10 02:31:30;;;;;;;45.05;24.05;;;;;;;;;;5380513;26;20015;-68
2024/04/10 02:33:55;;;;;;;44.47;25.27;;;;;;;;;;5380706;26;20000;-68
2024/04/10 02:36:21;;;;;;;47.22;27.27;;;;;;;;;;5379511;26;20004;-69
2024/04/10 02:38:46;;;;;;;49.60;28.67;;;;;;;;;;5355420;26;20443;-68
2024/04/10 02:41:11;;;;;;;44.75;26.45;;;;;;;;;;5343916;26;20009;-68
2024/04/10 02:43:37;;;;;;;47.88;26.48;;;;;;;;;;5345615;26;20005;-69
2024/04/10 02:46:03;;;;;;;44.78;26.05;;;;;;;;;;5345416;26;20021;-70
2024/04/10 02:48:29;;;;;;;52.08;26.98;;;;;;;;;;5369541;26;20318;-69
2024/04/10 02:50:54;;;;;;;47.08;25.48;;;;;;;;;;5379763;26;20000;-69
2024/04/10 02:53:20;;;;;;;54.53;27.90;;;;;;;;;;5357206;26;20013;-69
2024/04/10 02:55:46;;;;;;;59.92;27.88;;;;;;;;;;5344302;26;20019;-68
2024/04/10 02:58:11;;;;;;;50.15;24.60;;;;;;;;;;5345240;26;20376;-66
2024/04/10 03:00:48;;;;;;;44.90;24.88;;;;;;;;;;5344989;26;20008;-67
2024/04/10 03:03:14;;;;;;;70.15;25.50;;;;;;;;;;5345674;26;20020;-68
2024/04/10 03:05:39;;;;;;;46.75;25.38;;;;;;;;;;5367794;26;20004;-66
2024/04/10 03:08:05;;;;;;;40.40;23.60;;;;;;;;;;5344351;26;20412;-66
2024/04/10 03:10:30;;;;;;;41.67;23.75;;;;;;;;;;5344695;26;20013;-66
2024/04/10 03:12:56;;;;;;;45.78;25.05;;;;;;;;;;5369411;26;20024;-65
2024/04/10 03:15:21;;;;;;;46.50;23.52;;;;;;;;;;5378553;26;20028;-67
2024/04/10 03:17:47;;;;;;;39.50;22.73;;;;;;;;;;5379826;26;20008;-65
2024/04/10 03:20:13;;;;;;;39.45;22.45;;;;;;;;;;5374977;26;20022;-66
2024/04/10 03:22:38;;;;;;;39.55;20.58;;;;;;;;;;5344708;26;20016;-67
2024/04/10 03:25:04;;;;;;;31.65;19.30;;;;;;;;;;5343948;26;20016;-67
2024/04/10 03:27:30;;;;;;;38.08;18.83;;;;;;;;;;5344220;26;20301;-65
2024/04/10 03:29:55;;;;;;;30.50;18.23;;;;;;;;;;5344281;26;20020;-65
2024/04/10 03:32:21;;;;;;;30.35;17.27;;;;;;;;;;5345241;26;20019;-64
2024/04/10 03:34:47;;;;;;;33.03;15.88;;;;;;;;;;5347755;26;20000;-66
2024/04/10 03:37:13;;;;;;;22.55;13.48;;;;;;;;;;5375978;26;20016;-67
2024/04/10 03:39:38;;;;;;;21.88;13.48;;;;;;;;;;5348282;26;20036;-67
2024/04/10 03:42:04;;;;;;;20.08;12.57;;;;;;;;;;5380016;26;20008;-67
2024/04/10 03:44:29;;;;;;;20.23;12.18;;;;;;;;;;5380287;26;20082;-66
2024/04/10 03:46:54;;;;;;;21.40;10.05;;;;;;;;;;5377076;26;20040;-67
2024/04/10 03:49:20;;;;;;;19.45;10.80;;;;;;;;;;5378570;26;20058;-66
2024/04/10 03:51:46;;;;;;;16.80;10.75;;;;;;;;;;5352724;26;20083;-67
2024/04/10 03:54:11;;;;;;;20.73;11.18;;;;;;;;;;5351134;26;20079;-67
2024/04/10 03:56:37;;;;;;;15.32;10.50;;;;;;;;;;5347364;26;20020;-67
2024/04/10 03:59:02;;;;;;;16.48;10.85;;;;;;;;;;5345895;26;20008;-67
2024/04/10 04:01:28;;;;;;;18.55;11.15;;;;;;;;;;5375192;26;20079;-67
2024/04/10 04:03:53;;;;;;;15.23;10.18;;;;;;;;;;5347879;26;20012;-67
2024/04/10 04:06:19;;;;;;;17.52;10.95;;;;;;;;;;5347124;26;20250;-67
2024/04/10 04:08:47;;;;;;;14.75;10.65;;;;;;;;;;5347457;26;20473;-69
2024/04/10 04:11:13;;;;;;;17.40;10.55;;;;;;;;;;5347163;26;20008;-68
2024/04/10 04:13:39;;;;;;;16.65;11.20;;;;;;;;;;5345018;26;20004;-67
2024/04/10 04:16:05;;;;;;;20.23;12.15;;;;;;;;;;5371564;26;20020;-66
2024/04/10 04:18:30;;;;;;;15.82;11.48;;;;;;;;;;5381512;26;20109;-69
2024/04/10 04:20:56;;;;;;;16.52;10.68;;;;;;;;;;5381065;26;20100;-67
2024/04/10 04:23:21;;;;;;;16.90;10.85;;;;;;;;;;5380070;26;20417;-69
2024/04/10 04:25:47;;;;;;;16.38;10.40;;;;;;;;;;5355886;26;20009;-68
2024/04/10 04:28:12;;;;;;;14.32;10.45;;;;;;;;;;5346575;26;20012;-68
2024/04/10 04:30:44;;;;;;;15.40;11.10;;;;;;;;;;5337673;26;20064;-67
2024/04/10 04:33:10;;;;;;;15.73;10.95;;;;;;;;;;5380264;26;20275;-68
2024/04/10 04:35:36;;;;;;;18.20;11.20;;;;;;;;;;5382861;26;20008;-68
2024/04/10 04:38:01;;;;;;;16.08;11.02;;;;;;;;;;5381572;26;20022;-66
2024/04/10 04:40:30;;;;;;;17.35;10.95;;;;;;;;;;5381409;26;20016;-67
2024/04/10 04:42:56;;;;;;;21.08;12.23;;;;;;;;;;5364011;26;20012;-68
2024/04/10 04:45:22;;;;;;;17.90;11.98;;;;;;;;;;5344617;26;20033;-67
2024/04/10 04:47:47;;;;;;;19.13;12.65;;;;;;;;;;5344907;26;20005;-68
2024/04/10 04:50:13;;;;;;;17.70;13.05;;;;;;;;;;5370150;26;20016;-66
2024/04/10 04:52:39;;;;;;;19.55;13.27;;;;;;;;;;5380342;26;20004;-68
2024/04/10 04:55:04;;;;;;;20.35;12.95;;;;;;;;;;5381019;26;20395;-67
2024/04/10 04:57:30;;;;;;;16.55;12.07;;;;;;;;;;5378467;26;20018;-67
2024/04/10 04:59:55;;;;;;;24.35;13.10;;;;;;;;;;5347711;26;20063;-67
2024/04/10 05:02:21;;;;;;;18.20;12.45;;;;;;;;;;5316362;26;20013;-68
2024/04/10 05:05:00;;;;;;;18.55;13.05;;;;;;;;;;5316822;26;20009;-67
2024/04/10 05:07:25;;;;;;;20.10;12.07;;;;;;;;;;5345776;26;20362;-68
2024/04/10 05:09:51;;;;;;;18.85;12.23;;;;;;;;;;5346375;26;20385;-68
2024/04/10 05:12:16;;;;;;;19.70;11.40;;;;;;;;;;5348294;26;20052;-67
2024/04/10 05:14:47;;;;;;;17.27;10.65;;;;;;;;;;5346580;26;20055;-67
2024/04/10 05:17:12;;;;;;;15.48;9.90;;;;;;;;;;5347053;26;20011;-67
2024/04/10 05:19:37;;;;;;;16.88;10.20;;;;;;;;;;5347723;26;20005;-67
2024/04/10 05:22:03;;;;;;;17.15;10.18;;;;;;;;;;5344231;26;20004;-68
2024/04/10 05:24:28;;;;;;;14.88;10.27;;;;;;;;;;5345280;26;20005;-69
2024/04/10 05:26:54;;;;;;;17.25;11.65;;;;;;;;;;5348808;26;20008;-68
2024/04/10 05:29:19;;;;;;;17.83;11.40;;;;;;;;;;5380315;26;20049;-68
2024/04/10 05:31:44;;;;;;;16.42;10.93;;;;;;;;;;5350370;26;20074;-68
2024/04/10 05:34:10;;;;;;;18.52;11.35;;;;;;;;;;5380436;26;20010;-68
2024/04/10 05:36:35;;;;;;;17.75;11.63;;;;;;;;;;5377168;26;20019;-67
2024/04/10 05:39:01;;;;;;;16.70;11.93;;;;;;;;;;5382410;26;20012;-68
2024/04/10 05:41:26;;;;;;;15.80;10.90;;;;;;;;;;5380844;26;20015;-67
2024/04/10 05:43:52;;;;;;;15.80;11.27;;;;;;;;;;5378648;26;20035;-68
2024/04/10 05:46:17;;;;;;;14.35;10.65;;;;;;;;;;5379748;26;20332;-67
2024/04/10 05:48:43;;;;;;;18.95;13.65;;;;;;;;;;5381116;26;20033;-69
2024/04/10 05:51:09;;;;;;;19.38;14.35;;;;;;;;;;5374832;26;20004;-68
2024/04/10 05:53:34;;;;;;;19.75;14.90;;;;;;;;;;5377791;26;20311;-66
2024/04/10 05:56:04;;;;;;;19.67;13.90;;;;;;;;;;5379267;26;20013;-68
2024/04/10 05:58:30;;;;;;;18.05;14.95;;;;;;;;;;5382296;26;20045;-68
2024/04/10 06:00:55;;;;;;;17.80;12.48;;;;;;;;;;5378738;26;20018;-66
2024/04/10 06:03:21;;;;;;;18.60;13.73;;;;;;;;;;5379745;26;20008;-69
2024/04/10 06:05:47;;;;;;;16.88;14.63;;;;;;;;;;5349833;26;20012;-69
2024/04/10 06:08:12;;;;;;;19.02;15.27;;;;;;;;;;5380323;26;19996;-69
2024/04/10 06:10:38;;;;;;;20.40;16.23;;;;;;;;;;5379484;26;20047;-70
2024/04/10 06:13:03;;;;;;;19.80;16.60;;;;;;;;;;5380479;26;20050;-71
2024/04/10 06:15:29;;;;;;;18.38;16.30;;;;;;;;;;5378420;26;20242;-72
2024/04/10 06:17:54;;;;;;;21.25;17.05;;;;;;;;;;5377745;26;20078;-69
2024/04/10 06:20:20;;;;;;;21.42;17.20;;;;;;;;;;5379565;26;20065;-69
2024/04/10 06:22:45;;;;;;;18.67;16.67;;;;;;;;;;5380430;26;20015;-70
2024/04/10 06:25:11;;;;;;;22.00;17.07;;;;;;;;;;5379567;26;20036;-69
2024/04/10 06:27:37;;;;;;;20.20;16.98;;;;;;;;;;5375215;26;20330;-70
2024/04/10 06:30:03;;;;;;;19.23;16.63;;;;;;;;;;5379195;26;20023;-70
2024/04/10 06:32:31;;;;;;;18.80;16.80;;;;;;;;;;5369022;26;20013;-69
2024/04/10 06:34:56;;;;;;;18.13;14.10;;;;;;;;;;5344708;26;20404;-68
2024/04/10 06:37:21;;;;;;;20.15;14.23;;;;;;;;;;5346663;26;20083;-68
2024/04/10 06:39:49;;;;;;;20.80;14.53;;;;;;;;;;5345866;26;20013;-68
2024/04/10 06:42:15;;;;;;;17.77;14.43;;;;;;;;;;5345247;26;20542;-68
2024/04/10 06:44:41;;;;;;;16.75;14.40;;;;;;;;;;5343485;26;20000;-68
2024/04/10 06:47:06;;;;;;;16.77;12.40;;;;;;;;;;5346427;26;20447;-77
2024/04/10 06:49:33;;;;;;;15.45;11.80;;;;;;;;;;5369622;26;20019;-72
2024/04/10 06:51:58;;;;;;;14.75;11.88;;;;;;;;;;5367805;26;20275;-73
2024/04/10 06:54:24;;;;;;;14.43;11.77;;;;;;;;;;5377042;26;20027;-74
2024/04/10 06:56:49;;;;;;;15.73;12.07;;;;;;;;;;5361783;26;20255;-72
2024/04/10 06:59:18;;;;;;;15.30;12.27;;;;;;;;;;5365372;26;20008;-65
2024/04/10 07:01:43;;;;;;;13.88;12.02;;;;;;;;;;5380663;26;20242;-76
2024/04/10 07:04:09;;;;;;;12.85;11.02;;;;;;;;;;5365492;26;20012;-77
2024/04/10 07:06:34;;;;;;;12.43;11.10;;;;;;;;;;5380905;26;20016;-78
2024/04/10 07:09:00;;;;;;;12.07;10.65;;;;;;;;;;5378880;26;20019;-73
2024/04/10 07:11:25;;;;;;;15.57;12.00;;;;;;;;;;5370931;26;20078;-66
2024/04/10 07:13:52;;;;;;;12.32;11.13;;;;;;;;;;5379802;26;20016;-69
2024/04/10 07:16:18;;;;;;;15.32;12.85;;;;;;;;;;5371161;26;20319;-68
2024/04/10 07:18:44;;;;;;;14.63;13.05;;;;;;;;;;5358947;26;20013;-72
2024/04/10 07:21:10;;;;;;;16.13;11.40;;;;;;;;;;5343651;26;20016;-71
2024/04/10 07:23:37;;;;;;;20.20;12.95;;;;;;;;;;5348847;26;20009;-68
2024/04/10 07:26:16;;;;;;;18.75;14.60;;;;;;;;;;5356264;26;20003;-73
2024/04/10 07:28:43;;;;;;;19.70;14.65;;;;;;;;;;5349560;26;20300;-75
2024/04/10 07:31:14;;;;;;;16.33;11.65;;;;;;;;;;5382425;26;20019;-73
2024/04/10 07:33:40;;;;;;;14.82;10.05;;;;;;;;;;5355237;26;20020;-75
2024/04/10 07:36:06;;;;;;;13.63;8.80;;;;;;;;;;5317387;26;20015;-78
2024/04/10 07:38:31;;;;;;;18.30;9.05;;;;;;;;;;5360132;26;20008;-75
2024/04/10 07:40:57;;;;;;;13.93;9.43;;;;;;;;;;5372748;26;20019;-73
2024/04/10 07:43:22;;;;;;;12.18;8.63;;;;;;;;;;5381747;26;20031;-78
2024/04/10 07:45:47;;;;;;;16.30;9.20;;;;;;;;;;5383343;26;20011;-77
2024/04/10 07:48:13;;;;;;;14.73;9.33;;;;;;;;;;5381022;26;20078;-77
2024/04/10 07:50:39;;;;;;;16.23;10.27;;;;;;;;;;5374263;26;20239;-76
2024/04/10 07:53:04;;;;;;;14.10;9.80;;;;;;;;;;5382894;26;20421;-73
2024/04/10 07:55:29;;;;;;;14.77;10.10;;;;;;;;;;5371161;26;20054;-71
2024/04/10 07:57:55;;;;;;;16.63;11.03;;;;;;;;;;5357927;26;20278;-71
2024/04/10 08:00:20;;;;;;;14.13;10.30;;;;;;;;;;5330023;26;20080;-69
2024/04/10 08:02:46;;;;;;;18.25;10.73;;;;;;;;;;5365456;26;20005;-71
2024/04/10 08:05:12;;;;;;;15.10;10.10;;;;;;;;;;5354421;26;20004;-75
2024/04/10 08:07:37;;;;;;;19.23;10.73;;;;;;;;;;5374550;26;20020;-76
2024/04/10 08:10:03;;;;;;;20.00;11.73;;;;;;;;;;5380738;26;20314;-76
2024/04/10 08:12:29;;;;;;;15.82;9.10;;;;;;;;;;5349906;26;20063;-78
2024/04/10 08:14:56;;;;;;;20.08;9.70;;;;;;;;;;5347498;26;20008;-76
2024/04/10 08:17:21;;;;;;;22.83;10.25;;;;;;;;;;5374368;26;20062;-69
2024/04/10 08:19:47;;;;;;;20.58;9.93;;;;;;;;;;5379672;26;20110;-73
2024/04/10 08:22:13;;;;;;;17.17;9.80;;;;;;;;;;5373946;26;20019;-78
2024/04/10 08:24:38;;;;;;;18.02;7.97;;;;;;;;;;5380099;26;20050;-73
2024/04/10 08:27:04;;;;;;;17.35;8.27;;;;;;;;;;5379411;26;20291;-73
2024/04/10 08:29:29;;;;;;;19.50;9.15;;;;;;;;;;5376596;26;20059;-74
2024/04/10 08:31:55;;;;;;;23.08;9.82;;;;;;;;;;5379812;26;20019;-76
2024/04/10 08:34:20;;;;;;;22.50;11.23;;;;;;;;;;5350973;26;20028;-69
2024/04/10 08:36:46;;;;;;;26.30;11.45;;;;;;;;;;5361122;26;20024;-68
2024/04/10 08:39:11;;;;;;;24.25;11.32;;;;;;;;;;5375336;26;20008;-68
2024/04/10 08:41:39;;;;;;;26.95;12.95;;;;;;;;;;5377693;26;20012;-72
2024/04/10 08:44:06;;;;;;;23.75;11.73;;;;;;;;;;5380171;26;20023;-70
2024/04/10 08:46:34;;;;;;;25.05;12.50;;;;;;;;;;5378146;26;20016;-73
2024/04/10 08:49:01;;;;;;;23.65;12.38;;;;;;;;;;5357862;26;20010;-72
2024/04/10 08:51:26;;;;;;;29.67;12.80;;;;;;;;;;5345737;26;20435;-70
2024/04/10 08:53:54;;;;;;;27.52;13.90;;;;;;;;;;5347956;26;20039;-73
2024/04/10 08:56:19;;;;;;;27.85;12.40;;;;;;;;;;5328536;26;20308;-72
2024/04/10 08:58:45;;;;;;;25.80;12.07;;;;;;;;;;5349699;26;20012;-66
2024/04/10 09:01:10;;;;;;;22.73;11.60;;;;;;;;;;5379964;26;20023;-67
2024/04/10 09:03:36;;;;;;;21.60;11.23;;;;;;;;;;5379027;26;20020;-67
2024/04/10 09:06:03;;;;;;;26.50;12.10;;;;;;;;;;5380433;26;20399;-74
2024/04/10 09:08:28;;;;;;;29.48;15.23;;;;;;;;;;5379216;26;20027;-70
2024/04/10 09:10:54;;;;;;;25.20;12.13;;;;;;;;;;5374531;26;20008;-73
2024/04/10 09:13:19;;;;;;;22.88;11.48;;;;;;;;;;5379654;26;20001;-73
2024/04/10 09:15:44;;;;;;;37.72;17.88;;;;;;;;;;5380036;26;20057;-75
2024/04/10 09:18:10;;;;;;;31.80;15.55;;;;;;;;;;5369017;26;20412;-77
2024/04/10 09:20:36;;;;;;;30.35;15.32;;;;;;;;;;5372973;26;20423;-72
2024/04/10 09:23:04;;;;;;;33.40;15.05;;;;;;;;;;5377526;26;20019;-69
2024/04/10 09:25:33;;;;;;;26.02;12.23;;;;;;;;;;5374262;26;20419;-71
2024/04/10 09:28:05;;;;;;;27.65;12.48;;;;;;;;;;5380215;26;20007;-62
2024/04/10 09:30:31;;;;;;;27.63;13.90;;;;;;;;;;5381584;26;20027;-71
2024/04/10 09:32:58;;;;;;;30.95;14.65;;;;;;;;;;5371450;26;20013;-72
2024/04/10 09:35:24;;;;;;;29.65;14.55;;;;;;;;;;5345421;26;20009;-71
2024/04/10 09:37:49;;;;;;;28.67;14.55;;;;;;;;;;5366504;26;20335;-76
2024/04/10 09:40:16;;;;;;;26.92;12.52;;;;;;;;;;5381698;26;20072;-74
2024/04/10 09:42:46;;;;;;;23.63;12.43;;;;;;;;;;5378631;26;20071;-75
2024/04/10 09:45:15;;;;;;;33.28;12.65;;;;;;;;;;5347936;26;20000;-77
2024/04/10 09:47:43;;;;;;;27.08;11.13;;;;;;;;;;5374868;26;20008;-61
2024/04/10 09:50:14;;;;;;;28.73;11.50;;;;;;;;;;5357384;26;20030;-62
2024/04/10 09:52:40;;;;;;;25.50;12.07;;;;;;;;;;5379894;26;20005;-64
2024/04/10 09:55:07;;;;;;;28.33;14.98;;;;;;;;;;5379661;26;20078;-64
2024/04/10 09:57:33;;;;;;;27.52;11.55;;;;;;;;;;5361087;26;20008;-66
2024/04/10 10:00:00;;;;;;;29.73;12.13;;;;;;;;;;5359950;26;20296;-66
2024/04/10 10:02:26;;;;;;;30.00;14.05;;;;;;;;;;5373313;26;20076;-68
2024/04/10 10:04:51;;;;;;;29.02;13.73;;;;;;;;;;5349261;26;20016;-66
2024/04/10 10:07:20;;;;;;;30.23;12.35;;;;;;;;;;5343297;26;20102;-67
2024/04/10 10:09:46;;;;;;;27.17;13.00;;;;;;;;;;5346312;26;20015;-66
2024/04/10 10:12:11;;;;;;;22.50;11.60;;;;;;;;;;5344707;26;20005;-67
2024/04/10 10:14:37;;;;;;;25.15;11.85;;;;;;;;;;5344432;26;20045;-65
2024/04/10 10:17:06;;;;;;;26.20;13.75;;;;;;;;;;5360564;26;20008;-64
2024/04/10 10:19:35;;;;;;;25.88;13.90;;;;;;;;;;5353291;26;20014;-63
2024/04/10 10:22:01;;;;;;;26.50;14.80;;;;;;;;;;5343674;26;20005;-67
2024/04/10 10:24:29;;;;;;;29.08;14.95;;;;;;;;;;5345487;26;20091;-64
2024/04/10 10:27:01;;;;;;;32.80;14.10;;;;;;;;;;5344542;26;20005;-66
2024/04/10 10:29:27;;;;;;;28.13;12.75;;;;;;;;;;5344955;26;20017;-66
2024/04/10 10:32:09;;;;;;;34.38;12.13;;;;;;;;;;5392151;26;20020;-64
2024/04/10 10:34:34;;;;;;;21.55;12.25;;;;;;;;;;5357907;26;20005;-68
2024/04/10 10:37:02;;;;;;;25.75;12.10;;;;;;;;;;5354191;26;20082;-71
2024/04/10 10:39:28;;;;;;;28.83;10.65;;;;;;;;;;5345262;26;20400;-69
2024/04/10 10:42:03;;;;;;;26.95;10.98;;;;;;;;;;5343985;26;20016;-71
2024/04/10 10:44:28;;;;;;;28.88;10.43;;;;;;;;;;5352224;26;20067;-74
2024/04/10 10:46:57;;;;;;;25.67;10.63;;;;;;;;;;5345671;26;20408;-64
2024/04/10 10:49:25;;;;;;;23.33;9.82;;;;;;;;;;5348082;26;20016;-74
2024/04/10 10:51:52;;;;;;;27.83;10.93;;;;;;;;;;5378192;26;20775;-75
2024/04/10 10:54:17;;;;;;;25.48;10.70;;;;;;;;;;5379806;26;20023;-77
2024/04/10 10:56:43;;;;;;;25.52;10.20;;;;;;;;;;5371212;26;20008;-66
2024/04/10 10:59:08;;;;;;;19.42;10.02;;;;;;;;;;5379069;26;20046;-74
2024/04/10 11:01:34;;;;;;;25.10;9.65;;;;;;;;;;5376378;26;20011;-65
2024/04/10 11:04:07;;;;;;;23.42;8.80;;;;;;;;;;5360839;26;20434;-67
2024/04/10 11:06:32;;;;;;;23.25;8.82;;;;;;;;;;5379923;26;20012;-66
2024/04/10 11:09:04;;;;;;;19.83;8.77;;;;;;;;;;5371410;26;20004;-67
2024/04/10 11:11:30;;;;;;;19.08;8.98;;;;;;;;;;5363615;26;20005;-66
2024/04/10 11:13:55;;;;;;;28.20;10.75;;;;;;;;;;5345577;26;20017;-66
2024/04/10 11:16:25;;;;;;;25.45;9.38;;;;;;;;;;5315120;26;20369;-66
2024/04/10 11:18:50;;;;;;;20.67;8.88;;;;;;;;;;5348877;26;20001;-67
2024/04/10 11:21:15;;;;;;;25.95;9.18;;;;;;;;;;5378639;26;20015;-68
2024/04/10 11:23:41;;;;;;;27.17;9.45;;;;;;;;;;5379965;26;20415;-66
2024/04/10 11:26:06;;;;;;;24.25;9.95;;;;;;;;;;5353201;26;20387;-66
2024/04/10 11:28:32;;;;;;;25.25;9.32;;;;;;;;;;5343028;26;20005;-67
2024/04/10 11:30:57;;;;;;;26.10;10.02;;;;;;;;;;5343373;26;20004;-67
2024/04/10 11:33:23;;;;;;;25.02;8.80;;;;;;;;;;5347127;26;20083;-66
2024/04/10 11:35:48;;;;;;;19.45;8.90;;;;;;;;;;5378210;26;20015;-66
2024/04/10 11:38:13;;;;;;;20.45;8.40;;;;;;;;;;5377992;26;20070;-66
2024/04/10 11:40:39;;;;;;;23.17;9.32;;;;;;;;;;5372835;26;20355;-66
2024/04/10 11:43:04;;;;;;;20.85;9.20;;;;;;;;;;5344355;26;20032;-65
2024/04/10 11:45:29;;;;;;;25.20;9.77;;;;;;;;;;5356448;26;20004;-69
2024/04/10 11:47:55;;;;;;;24.10;9.95;;;;;;;;;;5375349;26;20009;-72
2024/04/10 11:50:21;;;;;;;25.80;10.73;;;;;;;;;;5355388;26;20053;-70
2024/04/10 11:52:46;;;;;;;22.70;9.52;;;;;;;;;;5375385;26;20012;-72
2024/04/10 11:55:14;;;;;;;24.52;9.15;;;;;;;;;;5349826;26;20013;-74
2024/04/10 11:57:40;;;;;;;27.02;10.18;;;;;;;;;;5345789;26;20040;-73
2024/04/10 12:00:07;;;;;;;25.05;9.75;;;;;;;;;;5370528;26;20069;-71
2024/04/10 12:02:33;;;;;;;28.75;9.95;;;;;;;;;;5376337;26;21176;-69
2024/04/10 12:05:01;;;;;;;23.85;10.88;;;;;;;;;;5355329;26;20005;-73
2024/04/10 12:07:28;;;;;;;26.02;9.80;;;;;;;;;;5361558;26;20302;-72
2024/04/10 12:09:54;;;;;;;24.92;9.63;;;;;;;;;;5354122;26;20009;-73
2024/04/10 12:12:21;;;;;;;24.50;10.45;;;;;;;;;;5316400;26;20083;-75
2024/04/10 12:14:47;;;;;;;28.17;10.50;;;;;;;;;;5333071;26;20005;-73
2024/04/10 12:17:12;;;;;;;23.85;9.63;;;;;;;;;;5380222;26;20055;-73
2024/04/10 12:19:37;;;;;;;26.65;9.30;;;;;;;;;;5371050;26;20012;-70
2024/04/10 12:22:03;;;;;;;25.30;9.38;;;;;;;;;;5370298;26;20117;-71
2024/04/10 12:24:28;;;;;;;24.73;10.45;;;;;;;;;;5376045;26;20032;-68
2024/04/10 12:26:55;;;;;;;22.65;9.77;;;;;;;;;;5345132;26;20001;-69
2024/04/10 12:29:20;;;;;;;24.50;10.15;;;;;;;;;;5362030;26;20370;-68
2024/04/10 12:31:47;;;;;;;26.63;9.43;;;;;;;;;;5381762;26;20052;-72
2024/04/10 12:34:12;;;;;;;23.65;10.30;;;;;;;;;;5358410;26;20016;-75
2024/04/10 12:39:22;;;;;;;27.55;10.88;;;;;;;;;;5362628;26;20041;-71
2024/04/10 12:41:51;;;;;;;23.88;10.30;;;;;;;;;;5366624;26;20035;-70
2024/04/10 12:44:20;;;;;;;27.90;10.43;;;;;;;;;;5348870;26;20062;-75
2024/04/10 12:46:48;;;;;;;26.98;9.70;;;;;;;;;;5342934;26;20005;-71
2024/04/10 12:49:15;;;;;;;22.27;10.30;;;;;;;;;;5344714;26;20019;-70
2024/04/10 12:51:40;;;;;;;25.23;9.70;;;;;;;;;;5370622;26;20020;-71
2024/04/10 12:54:06;;;;;;;21.90;9.75;;;;;;;;;;5377720;26;20024;-71
2024/04/10 12:56:31;;;;;;;25.33;10.85;;;;;;;;;;5370569;26;20036;-69
2024/04/10 12:58:57;;;;;;;29.38;11.55;;;;;;;;;;5380794;26;20082;-69
2024/04/10 13:01:23;;;;;;;23.05;10.43;;;;;;;;;;5380005;26;20016;-67
2024/04/10 13:03:52;;;;;;;21.42;10.02;;;;;;;;;;5377929;26;20008;-65
2024/04/10 13:06:17;;;;;;;26.52;11.45;;;;;;;;;;5380334;26;20008;-65
2024/04/10 13:08:43;;;;;;;25.67;10.95;;;;;;;;;;5381180;26;20085;-69
2024/04/10 13:11:10;;;;;;;33.90;11.50;;;;;;;;;;5372940;26;20013;-72
2024/04/10 13:13:36;;;;;;;23.20;10.10;;;;;;;;;;5368118;26;20157;-68
2024/04/10 13:16:02;;;;;;;23.27;11.48;;;;;;;;;;5344471;26;20013;-74
2024/04/10 13:18:27;;;;;;;32.38;13.45;;;;;;;;;;5344351;26;20023;-70
2024/04/10 13:20:53;;;;;;;27.40;13.75;;;;;;;;;;5352150;26;20040;-70
2024/04/10 13:23:19;;;;;;;35.50;14.27;;;;;;;;;;5347642;26;20023;-71
2024/04/10 13:25:44;;;;;;;32.38;12.95;;;;;;;;;;5375921;26;20012;-70
2024/04/10 13:28:11;;;;;;;29.10;14.55;;;;;;;;;;5346230;26;20022;-68
2024/04/10 13:30:36;;;;;;;31.42;14.50;;;;;;;;;;5381036;26;20046;-71
2024/04/10 13:33:01;;;;;;;30.15;14.77;;;;;;;;;;5369179;26;20029;-70
2024/04/10 13:35:27;;;;;;;29.00;14.32;;;;;;;;;;5342667;26;20408;-72
2024/04/10 13:37:52;;;;;;;30.85;14.93;;;;;;;;;;5358336;26;20023;-70
2024/04/10 13:40:18;;;;;;;32.40;15.25;;;;;;;;;;5377131;26;20112;-68
2024/04/10 13:42:43;;;;;;;38.08;15.45;;;;;;;;;;5350793;26;20047;-66
2024/04/10 13:45:10;;;;;;;36.20;14.35;;;;;;;;;;5344037;26;20037;-70
2024/04/10 13:47:35;;;;;;;29.00;15.05;;;;;;;;;;5343649;26;20004;-72
2024/04/10 13:50:00;;;;;;;28.70;14.55;;;;;;;;;;5369195;26;20004;-68
2024/04/10 13:52:27;;;;;;;32.88;14.63;;;;;;;;;;5379766;26;20411;-67
2024/04/10 13:54:52;;;;;;;23.48;13.82;;;;;;;;;;5377984;26;20008;-67
2024/04/10 13:57:18;;;;;;;30.60;14.02;;;;;;;;;;5370891;26;20019;-68
2024/04/10 13:59:45;;;;;;;26.73;13.93;;;;;;;;;;5373125;26;20023;-66
2024/04/10 14:02:11;;;;;;;27.67;12.95;;;;;;;;;;5368282;26;20032;-71
2024/04/10 14:04:36;;;;;;;26.88;13.45;;;;;;;;;;5344739;26;20012;-70
2024/04/10 14:07:01;;;;;;;22.42;12.80;;;;;;;;;;5342642;26;20015;-71
2024/04/10 14:09:27;;;;;;;35.45;13.60;;;;;;;;;;5344556;26;20016;-68
2024/04/10 14:11:52;;;;;;;28.77;13.82;;;;;;;;;;5370616;26;20023;-70
2024/04/10 14:14:18;;;;;;;28.95;14.65;;;;;;;;;;5362253;26;20086;-70